Nissho Maru No.18 — JL6369 — position and weather

sailwx.info

Track history (hours):
 
Tides and Currents Weather Stations Pressure Air Temp Water Temp Dewpoint Dewpoint Depression Visibility Wind Speed Wind Dir Waves Ship Positions

Nissho Maru No.18

Last reported at 2017-Aug-11 08:30 UTC. Time now 2017-Aug-21 17:25 UTC.
Position N 33°59' E 134°55'.
Warning: this ship's position is 10 days out of date.

Length 65 m; draft 4 m.

Type: Tanker. MMSI: 431500465.

Date/timePositionNaut miles runAvg speedWind from/ knotsBaromVisibWave heightAir tempDewpointWater temp
2017-Aug-11 08:30N 33°59' E 134°55'215 8.6
2017-Aug-10 07:29N 34°50' E 139°09'1910.6
2017-Aug-10 05:39N 35°01' E 139°28'310.7
2017-Aug-10 05:24N 35°02' E 139°31'410.9
2017-Aug-10 05:01N 35°04' E 139°35'611.4
2017-Aug-10 04:31N 35°07' E 139°42'611.5
2017-Aug-10 04:00N 35°12' E 139°45'511.1
2017-Aug-10 03:30N 35°17' E 139°45'611.3
2017-Aug-10 03:00N 35°22' E 139°42'611.6
2017-Aug-10 02:30N 35°27' E 139°46'4 7.1
2017-Aug-10 02:00N 35°31' E 139°46'0 0.0
2017-Aug-10 01:30N 35°31' E 139°46'0 0.0
2017-Aug-10 01:00N 35°31' E 139°46'0 0.0
2017-Aug-10 00:30N 35°31' E 139°46'0 0.0
2017-Aug-10 00:00N 35°31' E 139°46'0 0.0
2017-Aug-09 23:30N 35°31' E 139°46'0 0.0
2017-Aug-09 23:00N 35°31' E 139°46'2 3.5
2017-Aug-09 22:30N 35°30' E 139°48'1 2.4
2017-Aug-09 21:58N 35°29' E 139°49'0 0.1
2017-Aug-09 21:25N 35°29' E 139°49'0 0.0
2017-Aug-09 20:58N 35°29' E 139°49'0 0.0
2017-Aug-09 20:28N 35°29' E 139°49'0 0.0
2017-Aug-09 19:58N 35°29' E 139°49'1 2.3
2017-Aug-09 19:30N 35°28' E 139°48'510.9
2017-Aug-09 19:00N 35°23' E 139°46'510.3
2017-Aug-09 18:30N 35°18' E 139°44'510.5
2017-Aug-09 18:00N 35°13' E 139°47'510.4
2017-Aug-09 17:30N 35°08' E 139°45'5 9.4
2017-Aug-09 17:00N 35°04' E 139°43'5 9.8
2017-Aug-09 16:30N 35°01' E 139°38'510.1
2017-Aug-09 15:58N 34°58' E 139°33'  
Track history (hours):
 
Tides and Currents Weather Stations Pressure Air Temp Water Temp Dewpoint Dewpoint Depression Visibility Wind Speed Wind Dir Waves Ship Positions

Nissho Maru No.18

Last reported at 2017-Aug-11 08:30 UTC. Time now 2017-Aug-21 17:25 UTC.
Position N 33°59' E 134°55'.
Warning: this ship's position is 10 days out of date.

Length 65 m; draft 4 m.

Type: Tanker. MMSI: 431500465.

Date/timePositionNaut miles runAvg speedWind from/ knotsBaromVisibWave heightAir tempDewpointWater temp
2017-Aug-11 08:30N 33°59' E 134°55'215 8.6
2017-Aug-10 07:29N 34°50' E 139°09'1910.6
2017-Aug-10 05:39N 35°01' E 139°28'310.7
2017-Aug-10 05:24N 35°02' E 139°31'410.9
2017-Aug-10 05:01N 35°04' E 139°35'611.4
2017-Aug-10 04:31N 35°07' E 139°42'611.5
2017-Aug-10 04:00N 35°12' E 139°45'511.1
2017-Aug-10 03:30N 35°17' E 139°45'611.3
2017-Aug-10 03:00N 35°22' E 139°42'611.6
2017-Aug-10 02:30N 35°27' E 139°46'4 7.1
2017-Aug-10 02:00N 35°31' E 139°46'0 0.0
2017-Aug-10 01:30N 35°31' E 139°46'0 0.0
2017-Aug-10 01:00N 35°31' E 139°46'0 0.0
2017-Aug-10 00:30N 35°31' E 139°46'0 0.0
2017-Aug-10 00:00N 35°31' E 139°46'0 0.0
2017-Aug-09 23:30N 35°31' E 139°46'0 0.0
2017-Aug-09 23:00N 35°31' E 139°46'2 3.5
2017-Aug-09 22:30N 35°30' E 139°48'1 2.4
2017-Aug-09 21:58N 35°29' E 139°49'0 0.1
2017-Aug-09 21:25N 35°29' E 139°49'0 0.0
2017-Aug-09 20:58N 35°29' E 139°49'0 0.0
2017-Aug-09 20:28N 35°29' E 139°49'0 0.0
2017-Aug-09 19:58N 35°29' E 139°49'1 2.3
2017-Aug-09 19:30N 35°28' E 139°48'510.9
2017-Aug-09 19:00N 35°23' E 139°46'510.3
2017-Aug-09 18:30N 35°18' E 139°44'510.5
2017-Aug-09 18:00N 35°13' E 139°47'510.4
2017-Aug-09 17:30N 35°08' E 139°45'5 9.4
2017-Aug-09 17:00N 35°04' E 139°43'5 9.8
2017-Aug-09 16:30N 35°01' E 139°38'510.1
2017-Aug-09 15:58N 34°58' E 139°33'  

Dump ship's entire track history